Kezhma, Russia
Current Conditions -  °F | °C
As of 8:00 PM on Thursday 30 Oct 2014 (Local Time) from UIBB Reporting Station
Overcast Overcast  
Wind Chill: 23°   Ceiling: 10000
Heat Index: 28°   Visibility: 3mi
Dew Point: 10°   Wind: 4mph
Humidity: 47%   Direction: 210°SSW
Pressure: 29.97"   Gusts: NA
Location:  58.98°N, 101.2°E
Report Text: UIBB 301300Z 21002MPS P5000 FEW033 OVC100 M02/M12 Q1015 NOSIGRMK QFE718/0958 30820560
Loading
Personal Weather Stations






























Interactive Weather Map
Tropical Storm Tracking
New forecast layout! Learn more

10-Day Weather Forecast

Advertisements
Track Severe Weather on mobile